Latest Weather Observations for Bendigo

IDV60801

Issued at 4:32 pm EST Sunday 30 April 2017 (issued every 30 minutes, with the page automatically refreshed every 10 minutes)

About weather observations | Map of weather stations | Latest weather observations for VIC | Other Formats
Station Details ID: 081123 Name: BENDIGO AIRPORT Lat: -36.74 Lon: 144.33 Height: 208.0 m
Data from the previous 72 hours. | See also: Recent months at Bendigo
Date/Time
EST
Temp
°C
App
Temp
°C
Dew
Point
°C
Rel
Hum
%
Delta-T
°C
Wind Press
QNH
hPa
Press
MSL
hPa
Rain since
9am
mm
Dir  Spd
km/h
Gust
km/h
Spd
kts
Gust
kts
30/04:30pm 14.6 13.2 7.4 62 3.6 NNE 4 9 2 5 1020.0 1019.8 0.0
30/04:00pm 14.6 13.7 7.6 63 3.5 N 2 7 1 4 1020.3 1020.1 0.0
30/03:30pm 14.6 12.9 7.6 63 3.5 NNE 6 9 3 5 1020.3 1020.1 0.0
30/03:00pm 14.6 12.9 7.6 63 3.5 N 6 9 3 5 1020.6 1020.5 0.0
30/02:30pm 14.7 12.9 7.3 61 3.7 NW 6 9 3 5 1020.8 1020.7 0.0
30/02:00pm 14.6 13.3 7.6 63 3.5 NW 4 11 2 6 1021.1 1021.0 0.0
30/01:30pm 14.6 12.8 7.2 61 3.7 NNW 6 9 3 5 1021.3 1021.2 0.0
30/01:00pm 14.4 13.5 7.7 64 3.3 NW 2 9 1 5 1021.6 1021.5 0.0
30/12:30pm 14.3 12.7 7.8 65 3.3 NW 6 9 3 5 1022.1 1021.9 0.0
30/12:00pm 14.3 12.8 8.3 67 3.0 NW 6 11 3 6 1022.5 1022.3 0.0
30/11:30am 14.4 12.9 8.4 67 3.0 NNW 6 11 3 6 1022.9 1022.7 0.0
30/11:00am 14.1 13.8 8.5 69 2.8 CALM 0 0 0 0 1023.0 1022.8 0.0
30/10:30am 13.8 12.7 8.4 70 2.7 NNE 4 7 2 4 1023.2 1023.0 0.0
30/10:00am 13.5 12.0 8.4 71 2.6 E 6 9 3 5 1023.3 1023.1 0.0
30/09:30am 13.0 12.2 8.1 72 2.4 ESE 2 7 1 4 1023.5 1023.3 0.0
30/09:00am 12.0 11.3 8.7 80 1.7 SE 2 6 1 3 1023.6 1023.4 0.0
30/08:30am 10.7 9.1 8.1 84 1.3 SE 6 7 3 4 1023.5 1023.3 0.0
30/08:00am 9.6 9.2 8.2 91 0.7 CALM 0 0 0 0 1023.3 1023.1 0.0
30/07:30am 9.1 8.6 7.7 91 0.7 CALM 0 0 0 0 1023.0 1022.8 0.0
30/07:00am 8.9 8.4 7.7 92 0.6 CALM 0 0 0 0 1022.8 1022.6 0.0
30/06:30am 8.9 8.3 7.5 91 0.7 CALM 0 0 0 0 1022.6 1022.4 0.0
30/06:00am 9.2 8.6 7.5 89 0.8 CALM 0 0 0 0 1022.6 1022.4 0.0
30/05:30am 8.9 7.9 7.5 91 0.7 S 2 6 1 3 1022.6 1022.4 0.0
30/05:00am 8.8 6.8 7.3 90 0.7 SSE 7 7 4 4 1022.5 1022.3 0.0
30/04:30am 9.2 7.3 7.6 90 0.8 SSE 7 13 4 7 1022.4 1022.2 0.0
30/04:00am 9.3 8.9 8.4 94 0.4 CALM 0 0 0 0 1022.5 1022.3 0.0
30/03:30am 8.4 7.9 7.8 96 0.3 CALM 0 6 0 3 1022.7 1022.5 0.0
30/03:00am 8.2 7.6 7.6 96 0.3 CALM 0 0 0 0 1023.0 1022.8 0.0
30/02:30am 8.0 7.4 7.4 96 0.3 CALM 0 0 0 0 1023.1 1022.9 0.0
30/02:00am 8.0 7.4 7.2 95 0.4 CALM 0 0 0 0 1023.2 1023.0 0.0
30/01:30am 8.1 7.5 7.2 94 0.4 CALM 0 0 0 0 1023.2 1023.0 0.0
30/01:00am 8.9 8.4 7.8 93 0.5 CALM 0 0 0 0 1023.2 1023.0 0.0
30/12:30am 9.2 8.6 7.5 89 0.8 CALM 0 0 0 0 1023.2 1023.0 0.0
30/12:00am 10.8 9.2 8.9 88 0.9 SSE 7 9 4 5 1023.0 1022.8 0.0
 
Date/Time
EST
Temp
°C
App
Temp
°C
Dew
Point
°C
Rel
Hum
%
Delta-T
°C
Wind Press
QNH
hPa
Press
MSL
hPa
Rain since
9am
mm
Dir  Spd
km/h
Gust
km/h
Spd
kts
Gust
kts
29/11:30pm 11.5 9.7 9.4 87 1.1 SSE 9 11 5 6 1023.0 1022.8 0.0
29/11:00pm 12.5 10.8 9.7 83 1.4 SSE 9 11 5 6 1023.1 1022.9 0.0
29/10:30pm 13.6 11.7 10.4 81 1.7 SSE 11 15 6 8 1023.2 1023.0 0.0
29/10:00pm 14.1 13.2 10.7 80 1.8 S 6 7 3 4 1023.4 1023.2 0.0
29/09:30pm 14.6 13.5 10.6 77 2.1 S 7 11 4 6 1023.4 1023.2 0.0
29/09:00pm 14.9 13.1 10.7 76 2.2 SW 11 15 6 8 1023.2 1023.0 0.0
29/08:30pm 14.8 13.9 10.6 76 2.2 SW 6 9 3 5 1023.1 1022.9 0.0
29/08:00pm 15.3 13.7 10.1 71 2.7 WSW 9 11 5 6 1023.0 1022.8 0.0
29/07:30pm 14.5 13.7 11.1 80 1.8 WSW 6 7 3 4 1023.2 1023.0 0.0
29/07:00pm 14.8 15.1 11.0 78 2.0 CALM 0 6 0 3 1022.9 1022.7 0.0
29/06:30pm 14.5 14.8 10.9 79 1.9 CALM 0 0 0 0 1022.8 1022.6 0.0
29/06:00pm 16.2 16.4 10.5 69 3.0 CALM 0 0 0 0 1022.5 1022.3 0.0
29/05:30pm 16.4 15.9 10.7 69 3.1 WSW 4 9 2 5 1022.4 1022.2 0.0
29/05:00pm 16.7 15.9 11.2 70 3.0 WSW 6 9 3 5 1022.4 1022.2 0.0
29/04:30pm 17.0 16.3 11.3 69 3.1 WSW 6 9 3 5 1022.5 1022.3 0.0
29/04:00pm 16.8 15.5 11.1 69 3.1 WSW 9 15 5 8 1022.5 1022.3 0.0
29/03:30pm 17.0 14.9 11.1 68 3.2 WSW 13 20 7 11 1022.3 1022.1 0.0
29/03:00pm 16.7 15.4 11.4 71 2.9 SW 9 15 5 8 1022.4 1022.2 0.0
29/02:30pm 16.6 14.2 11.3 71 2.9 SW 15 20 8 11 1022.4 1022.2 0.0
29/02:00pm 16.3 14.0 11.9 75 2.4 SW 15 20 8 11 1022.5 1022.3 0.0
29/01:30pm 15.6 13.8 12.0 79 2.0 SW 13 22 7 12 1022.9 1022.7 0.0
29/01:00pm 16.6 14.1 11.1 70 3.0 WSW 15 24 8 13 1022.8 1022.6 0.0
29/12:30pm 16.3 14.3 11.5 73 2.6 WSW 13 19 7 10 1023.1 1022.9 0.0
29/12:00pm 16.3 14.7 11.7 74 2.5 SW 11 17 6 9 1023.5 1023.3 0.0
29/11:30am 15.5 14.3 11.5 77 2.2 WSW 9 15 5 8 1023.7 1023.5 0.0
29/11:00am 15.3 14.3 10.9 75 2.4 W 7 13 4 7 1023.8 1023.6 0.0
29/10:30am 15.1 13.4 11.1 77 2.2 WNW 11 15 6 8 1023.8 1023.6 0.0
29/10:00am 14.4 13.0 10.8 79 1.9 WNW 9 13 5 7 1023.9 1023.7 0.0
29/09:30am 14.0 12.5 10.4 79 1.9 WNW 9 11 5 6 1023.9 1023.7 0.0
29/09:00am 13.5 12.9 10.5 82 1.6 WNW 4 7 2 4 1023.8 1023.6 0.0
29/08:30am 12.9 13.0 10.3 84 1.4 CALM 0 0 0 0 1023.7 1023.5 0.0
29/08:00am 12.4 11.4 10.3 87 1.1 W 6 7 3 4 1023.5 1023.3 0.0
29/07:30am 11.6 11.5 10.8 95 0.4 W 2 11 1 6 1023.2 1023.0 0.0
29/07:00am 10.6 10.6 9.8 95 0.4 CALM 0 0 0 0 1022.7 1022.5 0.0
29/06:30am 10.3 9.9 9.7 96 0.3 W 2 7 1 4 1022.5 1022.3 0.0
29/06:00am 10.2 10.2 9.7 97 0.3 CALM 0 2 0 1 1022.5 1022.3 0.0
29/05:30am 9.0 8.6 8.4 96 0.3 CALM 0 0 0 0 1022.5 1022.3 0.0
29/05:00am 9.1 8.8 8.5 96 0.3 CALM 0 0 0 0 1022.5 1022.3 0.0
29/04:30am 9.2 8.8 8.4 95 0.4 CALM 0 0 0 0 1022.4 1022.2 0.0
29/04:00am 9.4 9.1 8.6 95 0.4 CALM 0 0 0 0 1022.5 1022.3 0.0
29/03:30am 10.0 9.8 8.9 93 0.5 CALM 0 0 0 0 1022.5 1022.3 0.0
29/03:00am 11.4 10.2 9.7 89 0.9 WSW 6 7 3 4 1022.5 1022.3 0.0
29/02:30am 11.5 11.1 9.9 90 0.8 SW 2 7 1 4 1022.6 1022.4 0.0
29/02:00am 11.6 10.3 9.2 85 1.2 SW 6 7 3 4 1022.8 1022.6 0.0
29/01:30am 12.9 11.9 10.3 84 1.4 SW 6 11 3 6 1022.9 1022.7 0.0
29/01:00am 12.9 11.3 10.3 84 1.4 SW 9 13 5 7 1023.0 1022.8 0.0
29/12:30am 13.2 11.3 10.4 83 1.5 SSW 11 17 6 9 1023.1 1022.9 0.0
29/12:00am 12.5 11.0 10.6 88 1.0 SW 9 13 5 7 1023.0 1022.8 0.0
 
Date/Time
EST
Temp
°C
App
Temp
°C
Dew
Point
°C
Rel
Hum
%
Delta-T
°C
Wind Press
QNH
hPa
Press
MSL
hPa
Rain since
9am
mm
Dir  Spd
km/h
Gust
km/h
Spd
kts
Gust
kts
28/11:30pm 12.9 12.0 11.3 90 0.9 SW 7 11 4 6 1023.3 1023.1 0.0
28/11:00pm 12.9 12.0 11.3 90 0.8 WSW 7 9 4 5 1023.4 1023.2 0.0
28/10:30pm 12.4 12.1 11.3 93 0.6 WSW 4 7 2 4 1023.4 1023.2 0.0
28/10:00pm 12.0 12.2 10.7 92 0.7 CALM 0 0 0 0 1023.5 1023.3 0.0
28/09:30pm 12.5 12.7 10.7 89 0.9 CALM 0 0 0 0 1023.5 1023.3 0.0
28/09:00pm 13.2 12.3 10.6 84 1.4 W 6 7 3 4 1023.6 1023.4 0.0
28/08:30pm 14.5 14.5 11.3 81 1.7 WNW 2 7 1 4 1023.5 1023.3 0.0
28/08:00pm 14.5 14.1 11.1 80 1.8 NW 4 9 2 5 1023.5 1023.3 0.0
28/07:30pm 15.0 14.6 11.2 78 2.0 NW 4 9 2 5 1023.6 1023.4 0.0
28/07:00pm 15.3 14.6 11.3 77 2.2 NNW 6 9 3 5 1023.5 1023.3 0.0
28/06:30pm 15.3 15.0 11.5 78 2.1 NNW 4 13 2 7 1023.5 1023.3 0.0
28/06:00pm 15.4 15.9 11.6 78 2.1 CALM 0 0 0 0 1023.4 1023.2 0.0
28/05:30pm 15.9 16.3 11.1 73 2.6 CALM 0 0 0 0 1023.2 1023.0 0.0
28/05:00pm 16.2 15.7 10.9 71 2.8 WNW 4 7 2 4 1023.1 1022.9 0.0
28/04:30pm 16.2 14.4 10.7 70 3.0 W 11 15 6 8 1023.3 1023.1 0.0
28/04:00pm 16.4 14.6 10.7 69 3.1 W 11 15 6 8 1023.3 1023.1 0.0
28/03:30pm 16.3 14.0 10.4 68 3.2 WSW 13 22 7 12 1023.4 1023.2 0.0
28/03:00pm 16.2 15.1 10.5 69 3.0 W 7 11 4 6 1023.4 1023.2 0.0
28/02:30pm 16.2 13.9 10.5 69 3.1 WSW 13 20 7 11 1023.4 1023.2 0.0
28/02:00pm 16.2 13.9 10.5 69 3.0 SW 13 17 7 9 1023.7 1023.5 0.0
28/01:30pm 16.0 12.8 10.1 68 3.1 WSW 17 24 9 13 1023.8 1023.6 0.0
28/01:00pm 16.1 13.0 10.2 68 3.1 WSW 17 22 9 12 1023.9 1023.7 0.0
28/12:30pm 16.5 13.4 10.4 67 3.3 WSW 17 22 9 12 1024.1 1023.9 0.0
28/12:00pm 15.9 13.4 9.8 67 3.2 W 13 20 7 11 1024.6 1024.5 0.0
28/11:30am 15.6 12.9 10.2 70 2.9 W 15 20 8 11 1024.9 1024.8 0.0
28/11:00am 15.1 12.6 9.7 70 2.8 SW 13 19 7 10 1025.0 1024.9 0.0
28/10:30am 15.2 13.4 9.3 68 3.1 NW 9 17 5 9 1024.9 1024.8 0.0
28/10:00am 13.8 12.6 9.6 76 2.2 NNW 6 9 3 5 1025.1 1025.0 0.0
28/09:30am 13.4 10.8 9.5 77 2.0 W 13 17 7 9 1025.2 1025.1 0.0
28/09:00am 13.0 11.3 9.8 81 1.6 WNW 9 15 5 8 1025.1 1025.0 0.0
28/08:30am 11.5 10.1 9.4 87 1.1 W 7 11 4 6 1024.9 1024.8 0.0
28/08:00am 10.8 9.3 9.2 90 0.8 WNW 7 9 4 5 1024.9 1024.8 0.0
28/07:30am 10.2 9.9 8.6 90 0.8 CALM 0 0 0 0 1024.4 1024.2 0.0
28/07:00am 9.8 8.3 8.6 92 0.6 W 6 9 3 5 1024.4 1024.2 0.0
28/06:30am 9.1 8.6 8.0 93 0.5 CALM 0 0 0 0 1024.1 1023.9 0.0
28/06:00am 9.1 8.5 7.5 90 0.8 CALM 0 0 0 0 1023.9 1023.7 0.0
28/05:30am 9.9 8.7 8.0 88 0.9 WSW 4 7 2 4 1024.1 1023.9 0.0
28/05:00am 10.4 8.3 8.2 86 1.1 W 9 13 5 7 1023.8 1023.6 0.0
28/04:30am 10.2 8.1 8.3 88 0.9 WSW 9 13 5 7 1023.6 1023.4 0.0
28/04:00am 9.6 7.9 8.5 93 0.5 WSW 7 9 4 5 1023.4 1023.2 0.0
28/03:30am 8.0 7.4 7.2 95 0.4 CALM 0 0 0 0 1023.4 1023.2 0.0
28/03:00am 8.0 7.3 7.1 94 0.4 CALM 0 0 0 0 1023.5 1023.3 0.0
28/02:30am 8.3 7.6 7.1 92 0.6 CALM 0 0 0 0 1023.7 1023.5 0.0
28/02:00am 9.2 8.6 7.6 90 0.8 CALM 0 0 0 0 1023.8 1023.6 0.0
28/01:30am 9.1 8.5 7.5 90 0.8 CALM 0 0 0 0 1023.9 1023.7 0.0
28/01:00am 9.6 9.0 7.4 86 1.1 CALM 0 0 0 0 1023.9 1023.7 0.0
28/12:30am 10.3 8.4 7.5 83 1.4 WSW 7 9 4 5 1024.2 1024.0 0.0
28/12:00am 10.1 7.1 7.7 85 1.2 W 13 17 7 9 1024.2 1024.0 0.0
 
Date/Time
EST
Temp
°C
App
Temp
°C
Dew
Point
°C
Rel
Hum
%
Delta-T
°C
Wind Press
QNH
hPa
Press
MSL
hPa
Rain since
9am
mm
Dir  Spd
km/h
Gust
km/h
Spd
kts
Gust
kts
27/11:30pm 10.1 7.9 7.7 85 1.2 WSW 9 13 5 7 1024.2 1024.0 0.0
27/11:00pm 10.3 8.0 7.5 83 1.3 W 9 11 5 6 1024.3 1024.1 0.0
27/10:30pm 10.4 7.4 7.5 82 1.4 W 13 15 7 8 1024.3 1024.1 0.0
27/10:00pm 10.5 8.2 7.6 82 1.4 WSW 9 13 5 7 1024.3 1024.1 0.0
27/09:30pm 10.5 7.9 7.6 82 1.4 WSW 11 15 6 8 1024.2 1024.0 0.0
27/09:00pm 10.3 8.6 7.4 82 1.4 WSW 6 9 3 5 1024.1 1023.9 0.0
27/08:30pm 10.1 8.3 7.2 82 1.4 W 6 9 3 5 1024.0 1023.8 0.0
27/08:00pm 10.6 8.8 7.1 79 1.7 WSW 6 11 3 6 1023.9 1023.7 0.0
27/07:30pm 10.7 9.2 6.6 76 2.0 W 4 11 2 6 1023.8 1023.6 0.0
27/07:00pm 10.7 8.6 6.6 76 1.9 WSW 7 13 4 7 1023.8 1023.6 0.0
27/06:30pm 10.8 8.6 6.4 74 2.1 WSW 7 11 4 6 1023.3 1023.1 0.0
27/06:00pm 10.1 7.5 6.3 77 1.8 SW 9 15 5 8 1023.0 1022.8 0.0
27/05:30pm 10.6 7.2 6.0 73 2.2 WSW 13 17 7 9 1022.9 1022.7 0.0
27/05:00pm 11.5 8.1 5.8 68 2.7 SW 13 22 7 12 1022.8 1022.6 0.0

Other Formats:

Comma delimited format used in spreadsheet applications
http://www.bom.gov.au/fwo/IDV60801/IDV60801.94855.axf

JavaScript Object Notation format (JSON) in row-major order
http://www.bom.gov.au/fwo/IDV60801/IDV60801.94855.json